Greifswald — 3FEC8 — position and weather

sailwx.info

Track history (hours):
 
Tides and Currents Weather Stations Pressure Air Temp Water Temp Dewpoint Dewpoint Depression Visibility Wind Speed Wind Dir Waves Ship Positions

Greifswald

Last reported at 2017-Sep-21 15:26 UTC. Time now 2017-Sep-22 04:49 UTC.
Position N 43°35' E 035°35'.

Length 191 m; draft 6 m.

Type: Passenger vessel. MMSI: 370492000.

Date/timePositionNaut miles runAvg speedWind from/ knotsBaromVisibWave heightAir tempDewpointWater temp
2017-Sep-21 15:26N 43°35' E 035°35'2014.7
2017-Sep-21 14:03N 43°27' E 036°01'4014.8
2017-Sep-21 11:20N 43°11' E 036°52'515.0
2017-Sep-21 11:00N 43°09' E 036°58'1014.5
2017-Sep-21 10:17N 43°05' E 037°11'514.3
2017-Sep-21 09:56N 43°03' E 037°17'1914.3
2017-Sep-21 08:38N 42°56' E 037°41'214.3
2017-Sep-21 08:30N 42°55' E 037°43'714.3
2017-Sep-21 08:00N 42°52' E 037°52'714.4
2017-Sep-21 07:30N 42°49' E 038°01'714.5
2017-Sep-21 07:00N 42°46' E 038°10'714.6
2017-Sep-21 06:30N 42°43' E 038°19'714.7
2017-Sep-21 06:00N 42°41' E 038°28'714.7
2017-Sep-21 05:30N 42°38' E 038°38'714.9
2017-Sep-21 05:00N 42°35' E 038°47'815.0
2017-Sep-21 04:30N 42°32' E 038°57'715.0
2017-Sep-21 04:00N 42°29' E 039°06'815.1
2017-Sep-21 03:30N 42°26' E 039°15'2715.0
2017-Sep-21 01:41N 42°15' E 039°49'315.0
2017-Sep-21 01:30N 42°14' E 039°52'915.2
2017-Sep-21 00:56N 42°11' E 040°03'31 1.2
2017-Sep-19 22:04N 41°57' E 040°41'215.1
2017-Sep-19 21:57N 41°57' E 040°39'1114.8
2017-Sep-19 21:12N 42°02' E 040°25'314.7
2017-Sep-19 21:00N 42°03' E 040°21'814.8
2017-Sep-19 20:29N 42°06' E 040°12'814.8
2017-Sep-19 19:55N 42°09' E 040°01'714.3
2017-Sep-19 19:26N 42°12' E 039°52'614.2
2017-Sep-19 19:00N 42°14' E 039°45'714.7
2017-Sep-19 18:30N 42°17' E 039°36'714.6
2017-Sep-19 18:00N 42°20' E 039°27'714.3
2017-Sep-19 17:30N 42°23' E 039°18'1414.3
2017-Sep-19 16:31N 42°28' E 039°00'014.2
2017-Sep-19 16:30N 42°28' E 039°00'714.1
2017-Sep-19 16:00N 42°31' E 038°51'814.2
2017-Sep-19 15:28N 42°34' E 038°42'613.9
2017-Sep-19 15:00N 42°37' E 038°34'611.6
2017-Sep-19 14:30N 42°39' E 038°26'3911.6
2017-Sep-19 11:10N 42°54' E 037°38'411.9
2017-Sep-19 10:51N 42°55' E 037°33'511.9
2017-Sep-19 10:24N 42°58' E 037°26'511.9
2017-Sep-19 09:59N 42°60' E 037°20'611.9
2017-Sep-19 09:30N 43°02' E 037°13'611.8
2017-Sep-19 09:00N 43°04' E 037°06'811.7
2017-Sep-19 08:20N 43°07' E 036°56'411.7
2017-Sep-19 08:00N 43°09' E 036°51'911.8
2017-Sep-19 07:14N 43°12' E 036°39'411.9
2017-Sep-19 06:53N 43°14' E 036°34'15913.7
2017-Sep-18 19:13N 44°25' E 033°16'315.1
2017-Sep-18 19:00N 44°27' E 033°13'815.2
2017-Sep-18 18:29N 44°33' E 033°06'715.2
2017-Sep-18 18:00N 44°38' E 032°59'815.1
2017-Sep-18 17:30N 44°44' E 032°51'814.9
2017-Sep-18 17:00N 44°49' E 032°44'714.8
2017-Sep-18 16:31N 44°55' E 032°38'714.8
2017-Sep-18 16:00N 45°00' E 032°31'714.7
2017-Sep-18 15:31N 45°06' E 032°24'714.7
2017-Sep-18 15:00N 45°11' E 032°17'714.6
2017-Sep-18 14:30N 45°17' E 032°10'815.0
2017-Sep-18 13:59N 45°22' E 032°03'715.0
2017-Sep-18 13:30N 45°28' E 031°56'914.7
2017-Sep-18 12:52N 45°35' E 031°46'514.6
2017-Sep-18 12:31N 45°38' E 031°41'714.4
2017-Sep-18 12:00N 45°43' E 031°33'1114.5
2017-Sep-18 11:13N 45°51' E 031°22'314.5
2017-Sep-18 11:00N 45°54' E 031°19'914.4
2017-Sep-18 10:22N 46°01' E 031°11'514.5
2017-Sep-18 10:01N 46°05' E 031°06'714.6
2017-Sep-18 09:30N 46°11' E 030°60'714.6
2017-Sep-18 09:00N 46°16' E 030°52'10 1.3
2017-Sep-18 01:03N 46°21' E 030°39'0 0.0
2017-Sep-17 23:50N 46°21' E 030°39'0 0.0
2017-Sep-17 20:59N 46°21' E 030°39'2 3.2
2017-Sep-17 20:30N 46°19' E 030°40'5 9.9
2017-Sep-17 20:00N 46°18' E 030°47'714.9
2017-Sep-17 19:31N 46°16' E 030°58'915.0
2017-Sep-17 18:54N 46°10' E 031°07'615.0
2017-Sep-17 18:30N 46°06' E 031°13'815.1
2017-Sep-17 18:00N 46°00' E 031°20'714.8
2017-Sep-17 17:31N 45°55' E 031°27'714.8
2017-Sep-17 17:00N 45°49' E 031°35'815.1
2017-Sep-17 16:31N 45°44' E 031°42'815.0
2017-Sep-17 16:00N 45°38' E 031°49'815.0
2017-Sep-17 15:29N 45°32' E 031°56'11214.9
2017-Sep-17 07:59N 44°10' E 033°43'10415.3
2017-Sep-17 01:14N 43°28' E 035°54'915.0
2017-Sep-17 00:38N 43°24' E 036°05'3014.7
2017-Sep-16 22:35N 43°14' E 036°44'214.9
2017-Sep-16 22:26N 43°13' E 036°47'614.8
2017-Sep-16 22:00N 43°10' E 036°55'4714.8
2017-Sep-16 18:52N 42°52' E 037°54'514.9
2017-Sep-16 18:30N 42°50' E 038°00'715.0
2017-Sep-16 18:00N 42°47' E 038°10'815.1
2017-Sep-16 17:30N 42°44' E 038°19'26 0.7
2017-Sep-15 03:15N 42°32' E 038°50'12714.4
2017-Sep-14 18:29N 43°20' E 036°10'1014.8
2017-Sep-14 17:48N 43°24' E 035°57'414.6
2017-Sep-14 17:30N 43°26' E 035°52'914.4
2017-Sep-14 16:53N 43°29' E 035°40'514.3
2017-Sep-14 16:30N 43°31' E 035°33'714.2
2017-Sep-14 16:00N 43°33' E 035°24'714.2
2017-Sep-14 15:30N 43°38' E 035°16'24014.0
2017-Sep-13 22:23N 46°12' E 030°57'614.4
2017-Sep-13 22:00N 46°16' E 030°51'714.5
2017-Sep-13 21:29N 46°19' E 030°41'2 0.6
2017-Sep-13 17:26N 46°21' E 030°39'0 0.0
2017-Sep-13 17:01N 46°21' E 030°39'0 0.0
2017-Sep-13 16:31N 46°21' E 030°39'0 0.0
2017-Sep-13 16:00N 46°21' E 030°39'0 0.0
2017-Sep-13 15:31N 46°21' E 030°39'0 0.0
2017-Sep-13 15:01N 46°21' E 030°39'0 0.0
2017-Sep-13 14:31N 46°21' E 030°39'0 0.0
2017-Sep-13 14:01N 46°21' E 030°39'0 0.0
2017-Sep-13 13:30N 46°21' E 030°39'0 0.0
2017-Sep-13 13:00N 46°21' E 030°39'0 0.0
2017-Sep-13 12:31N 46°21' E 030°39'0 0.0
2017-Sep-13 12:00N 46°21' E 030°39'0 0.0
2017-Sep-13 11:30N 46°21' E 030°39'0 0.0
2017-Sep-13 11:01N 46°21' E 030°39'0 0.0
2017-Sep-13 10:31N 46°21' E 030°39'0 0.0
2017-Sep-13 10:01N 46°21' E 030°39'0 0.0
2017-Sep-13 09:30N 46°21' E 030°39'0 0.0
2017-Sep-13 09:01N 46°21' E 030°39'0 0.0
2017-Sep-13 08:31N 46°21' E 030°39'0 0.0
2017-Sep-13 08:01N 46°21' E 030°39'0 0.0
2017-Sep-13 07:31N 46°21' E 030°39'0 0.0
2017-Sep-13 07:00N 46°21' E 030°39'0 0.0
2017-Sep-13 06:31N 46°21' E 030°39'0 0.0
2017-Sep-13 06:01N 46°21' E 030°39'0 0.1
2017-Sep-13 05:30N 46°21' E 030°39'0 0.1
2017-Sep-13 05:01N 46°21' E 030°39'0 0.3
2017-Sep-13 04:30N 46°20' E 030°39'4 7.0
2017-Sep-13 04:00N 46°19' E 030°43'612.6
2017-Sep-13 03:31N 46°17' E 030°52'714.2
2017-Sep-13 03:00N 46°14' E 031°01'612.5
2017-Sep-13 02:30N 46°09' E 031°08'612.3
2017-Sep-13 02:00N 46°05' E 031°14'1212.0
2017-Sep-13 00:59N 45°56' E 031°26'612.2
2017-Sep-13 00:30N 45°52' E 031°31'612.5
2017-Sep-13 00:00N 45°47' E 031°38'612.5
2017-Sep-12 23:30N 45°43' E 031°44'612.7
2017-Sep-12 23:00N 45°38' E 031°50'612.7
2017-Sep-12 22:30N 45°33' E 031°56'612.6
2017-Sep-12 22:00N 45°28' E 032°01'7512.7
2017-Sep-12 16:03N 44°31' E 033°12'113.6
2017-Sep-12 15:58N 44°31' E 033°13'613.7
2017-Sep-12 15:29N 44°26' E 033°19'713.6
2017-Sep-12 15:00N 44°21' E 033°25'77 6.2
2017-Sep-12 02:40N 44°21' E 035°12'1 5.3
2017-Sep-12 02:30N 44°22' E 035°13'3 5.3
2017-Sep-12 01:59N 44°22' E 035°17'3 5.6
2017-Sep-12 01:30N 44°22' E 035°21'1110.4
2017-Sep-12 00:27N 44°28' E 035°34'3 6.6
2017-Sep-11 23:56N 44°28' E 035°39'3 6.6
2017-Sep-11 23:30N 44°29' E 035°43'3 6.6
2017-Sep-11 23:00N 44°29' E 035°47'3 6.6
2017-Sep-11 22:30N 44°30' E 035°52'4 7.6
2017-Sep-11 22:00N 44°31' E 035°57'5 8.1
2017-Sep-11 21:24N 44°32' E 036°04'3 6.6
2017-Sep-11 21:00N 44°32' E 036°07'1 1.1
2017-Sep-11 20:27N 44°32' E 036°08'1 0.8
2017-Sep-11 19:13N 44°31' E 036°09'2 7.5
2017-Sep-11 19:00N 44°29' E 036°10'  
Track history (hours):
 
Tides and Currents Weather Stations Pressure Air Temp Water Temp Dewpoint Dewpoint Depression Visibility Wind Speed Wind Dir Waves Ship Positions

Greifswald

Last reported at 2017-Sep-21 15:26 UTC. Time now 2017-Sep-22 04:49 UTC.
Position N 43°35' E 035°35'.

Length 191 m; draft 6 m.

Type: Passenger vessel. MMSI: 370492000.

Date/timePositionNaut miles runAvg speedWind from/ knotsBaromVisibWave heightAir tempDewpointWater temp
2017-Sep-21 15:26N 43°35' E 035°35'2014.7
2017-Sep-21 14:03N 43°27' E 036°01'4014.8
2017-Sep-21 11:20N 43°11' E 036°52'515.0
2017-Sep-21 11:00N 43°09' E 036°58'1014.5
2017-Sep-21 10:17N 43°05' E 037°11'514.3
2017-Sep-21 09:56N 43°03' E 037°17'1914.3
2017-Sep-21 08:38N 42°56' E 037°41'214.3
2017-Sep-21 08:30N 42°55' E 037°43'714.3
2017-Sep-21 08:00N 42°52' E 037°52'714.4
2017-Sep-21 07:30N 42°49' E 038°01'714.5
2017-Sep-21 07:00N 42°46' E 038°10'714.6
2017-Sep-21 06:30N 42°43' E 038°19'714.7
2017-Sep-21 06:00N 42°41' E 038°28'714.7
2017-Sep-21 05:30N 42°38' E 038°38'714.9
2017-Sep-21 05:00N 42°35' E 038°47'815.0
2017-Sep-21 04:30N 42°32' E 038°57'715.0
2017-Sep-21 04:00N 42°29' E 039°06'815.1
2017-Sep-21 03:30N 42°26' E 039°15'2715.0
2017-Sep-21 01:41N 42°15' E 039°49'315.0
2017-Sep-21 01:30N 42°14' E 039°52'915.2
2017-Sep-21 00:56N 42°11' E 040°03'31 1.2
2017-Sep-19 22:04N 41°57' E 040°41'215.1
2017-Sep-19 21:57N 41°57' E 040°39'1114.8
2017-Sep-19 21:12N 42°02' E 040°25'314.7
2017-Sep-19 21:00N 42°03' E 040°21'814.8
2017-Sep-19 20:29N 42°06' E 040°12'814.8
2017-Sep-19 19:55N 42°09' E 040°01'714.3
2017-Sep-19 19:26N 42°12' E 039°52'614.2
2017-Sep-19 19:00N 42°14' E 039°45'714.7
2017-Sep-19 18:30N 42°17' E 039°36'714.6
2017-Sep-19 18:00N 42°20' E 039°27'714.3
2017-Sep-19 17:30N 42°23' E 039°18'1414.3
2017-Sep-19 16:31N 42°28' E 039°00'014.2
2017-Sep-19 16:30N 42°28' E 039°00'714.1
2017-Sep-19 16:00N 42°31' E 038°51'814.2
2017-Sep-19 15:28N 42°34' E 038°42'613.9
2017-Sep-19 15:00N 42°37' E 038°34'611.6
2017-Sep-19 14:30N 42°39' E 038°26'3911.6
2017-Sep-19 11:10N 42°54' E 037°38'411.9
2017-Sep-19 10:51N 42°55' E 037°33'511.9
2017-Sep-19 10:24N 42°58' E 037°26'511.9
2017-Sep-19 09:59N 42°60' E 037°20'611.9
2017-Sep-19 09:30N 43°02' E 037°13'611.8
2017-Sep-19 09:00N 43°04' E 037°06'811.7
2017-Sep-19 08:20N 43°07' E 036°56'411.7
2017-Sep-19 08:00N 43°09' E 036°51'911.8
2017-Sep-19 07:14N 43°12' E 036°39'411.9
2017-Sep-19 06:53N 43°14' E 036°34'15913.7
2017-Sep-18 19:13N 44°25' E 033°16'315.1
2017-Sep-18 19:00N 44°27' E 033°13'815.2
2017-Sep-18 18:29N 44°33' E 033°06'715.2
2017-Sep-18 18:00N 44°38' E 032°59'815.1
2017-Sep-18 17:30N 44°44' E 032°51'814.9
2017-Sep-18 17:00N 44°49' E 032°44'714.8
2017-Sep-18 16:31N 44°55' E 032°38'714.8
2017-Sep-18 16:00N 45°00' E 032°31'714.7
2017-Sep-18 15:31N 45°06' E 032°24'714.7
2017-Sep-18 15:00N 45°11' E 032°17'714.6
2017-Sep-18 14:30N 45°17' E 032°10'815.0
2017-Sep-18 13:59N 45°22' E 032°03'715.0
2017-Sep-18 13:30N 45°28' E 031°56'914.7
2017-Sep-18 12:52N 45°35' E 031°46'514.6
2017-Sep-18 12:31N 45°38' E 031°41'714.4
2017-Sep-18 12:00N 45°43' E 031°33'1114.5
2017-Sep-18 11:13N 45°51' E 031°22'314.5
2017-Sep-18 11:00N 45°54' E 031°19'914.4
2017-Sep-18 10:22N 46°01' E 031°11'514.5
2017-Sep-18 10:01N 46°05' E 031°06'714.6
2017-Sep-18 09:30N 46°11' E 030°60'714.6
2017-Sep-18 09:00N 46°16' E 030°52'10 1.3
2017-Sep-18 01:03N 46°21' E 030°39'0 0.0
2017-Sep-17 23:50N 46°21' E 030°39'0 0.0
2017-Sep-17 20:59N 46°21' E 030°39'2 3.2
2017-Sep-17 20:30N 46°19' E 030°40'5 9.9
2017-Sep-17 20:00N 46°18' E 030°47'714.9
2017-Sep-17 19:31N 46°16' E 030°58'915.0
2017-Sep-17 18:54N 46°10' E 031°07'615.0
2017-Sep-17 18:30N 46°06' E 031°13'815.1
2017-Sep-17 18:00N 46°00' E 031°20'714.8
2017-Sep-17 17:31N 45°55' E 031°27'714.8
2017-Sep-17 17:00N 45°49' E 031°35'815.1
2017-Sep-17 16:31N 45°44' E 031°42'815.0
2017-Sep-17 16:00N 45°38' E 031°49'815.0
2017-Sep-17 15:29N 45°32' E 031°56'11214.9
2017-Sep-17 07:59N 44°10' E 033°43'10415.3
2017-Sep-17 01:14N 43°28' E 035°54'915.0
2017-Sep-17 00:38N 43°24' E 036°05'3014.7
2017-Sep-16 22:35N 43°14' E 036°44'214.9
2017-Sep-16 22:26N 43°13' E 036°47'614.8
2017-Sep-16 22:00N 43°10' E 036°55'4714.8
2017-Sep-16 18:52N 42°52' E 037°54'514.9
2017-Sep-16 18:30N 42°50' E 038°00'715.0
2017-Sep-16 18:00N 42°47' E 038°10'815.1
2017-Sep-16 17:30N 42°44' E 038°19'26 0.7
2017-Sep-15 03:15N 42°32' E 038°50'12714.4
2017-Sep-14 18:29N 43°20' E 036°10'1014.8
2017-Sep-14 17:48N 43°24' E 035°57'414.6
2017-Sep-14 17:30N 43°26' E 035°52'914.4
2017-Sep-14 16:53N 43°29' E 035°40'514.3
2017-Sep-14 16:30N 43°31' E 035°33'714.2
2017-Sep-14 16:00N 43°33' E 035°24'714.2
2017-Sep-14 15:30N 43°38' E 035°16'24014.0
2017-Sep-13 22:23N 46°12' E 030°57'614.4
2017-Sep-13 22:00N 46°16' E 030°51'714.5
2017-Sep-13 21:29N 46°19' E 030°41'2 0.6
2017-Sep-13 17:26N 46°21' E 030°39'0 0.0
2017-Sep-13 17:01N 46°21' E 030°39'0 0.0
2017-Sep-13 16:31N 46°21' E 030°39'0 0.0
2017-Sep-13 16:00N 46°21' E 030°39'0 0.0
2017-Sep-13 15:31N 46°21' E 030°39'0 0.0
2017-Sep-13 15:01N 46°21' E 030°39'0 0.0
2017-Sep-13 14:31N 46°21' E 030°39'0 0.0
2017-Sep-13 14:01N 46°21' E 030°39'0 0.0
2017-Sep-13 13:30N 46°21' E 030°39'0 0.0
2017-Sep-13 13:00N 46°21' E 030°39'0 0.0
2017-Sep-13 12:31N 46°21' E 030°39'0 0.0
2017-Sep-13 12:00N 46°21' E 030°39'0 0.0
2017-Sep-13 11:30N 46°21' E 030°39'0 0.0
2017-Sep-13 11:01N 46°21' E 030°39'0 0.0
2017-Sep-13 10:31N 46°21' E 030°39'0 0.0
2017-Sep-13 10:01N 46°21' E 030°39'0 0.0
2017-Sep-13 09:30N 46°21' E 030°39'0 0.0
2017-Sep-13 09:01N 46°21' E 030°39'0 0.0
2017-Sep-13 08:31N 46°21' E 030°39'0 0.0
2017-Sep-13 08:01N 46°21' E 030°39'0 0.0
2017-Sep-13 07:31N 46°21' E 030°39'0 0.0
2017-Sep-13 07:00N 46°21' E 030°39'0 0.0
2017-Sep-13 06:31N 46°21' E 030°39'0 0.0
2017-Sep-13 06:01N 46°21' E 030°39'0 0.1
2017-Sep-13 05:30N 46°21' E 030°39'0 0.1
2017-Sep-13 05:01N 46°21' E 030°39'0 0.3
2017-Sep-13 04:30N 46°20' E 030°39'4 7.0
2017-Sep-13 04:00N 46°19' E 030°43'612.6
2017-Sep-13 03:31N 46°17' E 030°52'714.2
2017-Sep-13 03:00N 46°14' E 031°01'612.5
2017-Sep-13 02:30N 46°09' E 031°08'612.3
2017-Sep-13 02:00N 46°05' E 031°14'1212.0
2017-Sep-13 00:59N 45°56' E 031°26'612.2
2017-Sep-13 00:30N 45°52' E 031°31'612.5
2017-Sep-13 00:00N 45°47' E 031°38'612.5
2017-Sep-12 23:30N 45°43' E 031°44'612.7
2017-Sep-12 23:00N 45°38' E 031°50'612.7
2017-Sep-12 22:30N 45°33' E 031°56'612.6
2017-Sep-12 22:00N 45°28' E 032°01'7512.7
2017-Sep-12 16:03N 44°31' E 033°12'113.6
2017-Sep-12 15:58N 44°31' E 033°13'613.7
2017-Sep-12 15:29N 44°26' E 033°19'713.6
2017-Sep-12 15:00N 44°21' E 033°25'77 6.2
2017-Sep-12 02:40N 44°21' E 035°12'1 5.3
2017-Sep-12 02:30N 44°22' E 035°13'3 5.3
2017-Sep-12 01:59N 44°22' E 035°17'3 5.6
2017-Sep-12 01:30N 44°22' E 035°21'1110.4
2017-Sep-12 00:27N 44°28' E 035°34'3 6.6
2017-Sep-11 23:56N 44°28' E 035°39'3 6.6
2017-Sep-11 23:30N 44°29' E 035°43'3 6.6
2017-Sep-11 23:00N 44°29' E 035°47'3 6.6
2017-Sep-11 22:30N 44°30' E 035°52'4 7.6
2017-Sep-11 22:00N 44°31' E 035°57'5 8.1
2017-Sep-11 21:24N 44°32' E 036°04'3 6.6
2017-Sep-11 21:00N 44°32' E 036°07'1 1.1
2017-Sep-11 20:27N 44°32' E 036°08'1 0.8
2017-Sep-11 19:13N 44°31' E 036°09'2 7.5
2017-Sep-11 19:00N 44°29' E 036°10'  

Dump ship's entire track history